createdAt,value
2023-03-27T00:01:16.619Z,5.30
2023-03-27T00:03:49.436Z,5.30
2023-03-27T00:06:18.184Z,5.20
2023-03-27T00:08:46.342Z,5.30
2023-03-27T00:11:14.203Z,5.30
2023-03-27T00:13:50.115Z,5.20
2023-03-27T00:16:18.470Z,5.20
2023-03-27T00:18:47.616Z,5.20
2023-03-27T00:21:15.400Z,5.20
2023-03-27T00:23:43.214Z,5.20
2023-03-27T00:26:11.817Z,5.30
2023-03-27T00:28:39.847Z,5.20
2023-03-27T00:31:11.415Z,5.30
2023-03-27T00:33:39.338Z,5.30
2023-03-27T00:36:09.645Z,5.30
2023-03-27T00:38:39.571Z,5.30
2023-03-27T00:41:08.534Z,5.20
2023-03-27T00:43:37.016Z,5.30
2023-03-27T00:46:07.910Z,5.30
2023-03-27T00:48:36.977Z,5.30
2023-03-27T00:51:05.453Z,5.20
2023-03-27T00:53:34.575Z,5.20
2023-03-27T00:56:03.924Z,5.40
2023-03-27T00:58:33.089Z,5.40
2023-03-27T01:01:00.998Z,5.40
2023-03-27T01:03:32.196Z,5.30
2023-03-27T01:06:01.565Z,5.30
2023-03-27T01:08:30.634Z,5.30
2023-03-27T01:11:04.049Z,5.40
2023-03-27T01:13:40.281Z,5.40
2023-03-27T01:16:11.118Z,5.40
2023-03-27T01:18:56.550Z,5.40
2023-03-27T01:22:03.065Z,5.40
2023-03-27T01:24:49.499Z,5.30
2023-03-27T01:27:20.331Z,5.20
2023-03-27T01:30:15.699Z,5.20
2023-03-27T01:33:05.867Z,5.10
2023-03-27T01:35:51.563Z,5.10
2023-03-27T01:39:01.036Z,5.10
2023-03-27T01:41:29.759Z,5.10
2023-03-27T01:43:59.056Z,5.20
2023-03-27T01:46:29.560Z,5.10
2023-03-27T01:48:59.804Z,5.20
2023-03-27T01:51:29.949Z,5.20
2023-03-27T01:54:01.462Z,5.20
2023-03-27T01:56:32.438Z,5.10
2023-03-27T01:59:04.065Z,5.10
2023-03-27T02:01:34.081Z,5.20
2023-03-27T02:04:02.255Z,5.10
2023-03-27T02:06:31.784Z,5.00
2023-03-27T02:09:02.100Z,4.90
2023-03-27T02:11:32.108Z,4.90
2023-03-27T02:14:01.452Z,4.90
2023-03-27T02:16:33.686Z,4.90
2023-03-27T02:19:03.155Z,4.80
2023-03-27T02:25:29.601Z,4.60
2023-03-27T02:28:07.628Z,4.60
2023-03-27T02:30:36.972Z,4.60
2023-03-27T02:33:09.006Z,4.60
2023-03-27T02:35:39.280Z,4.60
2023-03-27T02:38:11.545Z,4.60
2023-03-27T02:40:46.208Z,4.60
2023-03-27T02:43:16.792Z,4.60
2023-03-27T02:45:49.427Z,4.50
2023-03-27T02:48:18.444Z,4.50
2023-03-27T02:50:49.199Z,4.50
2023-03-27T02:53:17.206Z,4.50
2023-03-27T02:55:47.588Z,4.40
2023-03-27T02:58:16.317Z,4.50
2023-03-27T03:00:48.757Z,4.50
2023-03-27T03:03:18.609Z,4.50
2023-03-27T03:05:46.561Z,4.40
2023-03-27T03:08:14.685Z,4.40
2023-03-27T03:10:46.063Z,4.50
2023-03-27T03:13:13.897Z,4.50
2023-03-27T03:15:41.809Z,4.50
2023-03-27T03:18:09.561Z,4.40
2023-03-27T03:20:38.075Z,4.40
2023-03-27T03:23:06.616Z,4.50
2023-03-27T03:25:34.389Z,4.40
2023-03-27T03:28:08.010Z,4.40
2023-03-27T03:30:37.513Z,4.40
2023-03-27T03:33:05.332Z,4.40
2023-03-27T03:35:34.757Z,4.40
2023-03-27T03:38:03.779Z,4.20
2023-03-27T03:40:31.668Z,4.20
2023-03-27T03:42:59.452Z,4.30
2023-03-27T03:45:28.574Z,4.30
2023-03-27T03:47:56.420Z,4.20
2023-03-27T03:50:24.251Z,4.20
2023-03-27T03:52:52.021Z,4.20
2023-03-27T03:55:19.870Z,4.10
2023-03-27T03:57:48.435Z,4.10
2023-03-27T04:00:18.669Z,4.10
2023-03-27T04:02:48.739Z,4.20
2023-03-27T04:05:16.800Z,4.20
2023-03-27T04:07:45.606Z,4.10
2023-03-27T04:10:14.267Z,4.10
2023-03-27T04:12:42.137Z,4.10
2023-03-27T04:15:10.664Z,4.10
2023-03-27T04:17:38.602Z,4.10
2023-03-27T04:20:08.673Z,4.10
2023-03-27T04:22:38.054Z,3.90
2023-03-27T04:25:07.179Z,4.00
2023-03-27T04:27:35.638Z,3.80
2023-03-27T04:30:03.469Z,3.80
2023-03-27T04:32:31.294Z,3.80
2023-03-27T04:34:59.065Z,3.80
2023-03-27T04:37:28.208Z,3.90
2023-03-27T04:39:55.978Z,3.80
2023-03-27T04:42:23.742Z,3.70
2023-03-27T04:44:52.451Z,3.70
2023-03-27T04:47:20.334Z,3.70
2023-03-27T04:49:50.744Z,3.70
2023-03-27T04:52:18.615Z,3.70
2023-03-27T04:54:48.387Z,3.70
2023-03-27T04:57:18.847Z,3.70
2023-03-27T04:59:46.806Z,3.70
2023-03-27T05:02:14.597Z,3.70
2023-03-27T05:04:42.394Z,3.70
2023-03-27T05:07:10.202Z,3.60
2023-03-27T05:09:38.021Z,3.80
2023-03-27T05:12:07.635Z,3.80
2023-03-27T05:14:35.460Z,3.80
2023-03-27T05:17:03.403Z,3.70
2023-03-27T05:19:31.168Z,3.80
2023-03-27T05:21:58.938Z,3.80
2023-03-27T05:24:27.036Z,3.80
2023-03-27T05:26:54.818Z,3.80
2023-03-27T05:29:23.948Z,3.70
2023-03-27T05:31:52.166Z,3.80
2023-03-27T05:34:20.768Z,3.80
2023-03-27T05:36:49.187Z,3.80
2023-03-27T05:39:16.970Z,3.70
2023-03-27T05:41:44.765Z,3.80
2023-03-27T05:44:12.512Z,3.70
2023-03-27T05:46:42.603Z,3.70
2023-03-27T05:49:10.527Z,3.80
2023-03-27T05:51:38.278Z,3.70
2023-03-27T05:54:06.148Z,3.70
2023-03-27T05:56:33.982Z,3.70
2023-03-27T05:59:02.221Z,3.60
2023-03-27T06:01:30.321Z,3.60
2023-03-27T06:03:59.777Z,3.60
2023-03-27T06:06:27.668Z,3.70
2023-03-27T06:08:56.032Z,3.60
2023-03-27T06:11:23.970Z,3.50
2023-03-27T06:13:51.940Z,3.40
2023-03-27T06:16:21.282Z,3.20
2023-03-27T06:18:49.176Z,3.00
2023-03-27T06:21:18.325Z,3.10
2023-03-27T06:23:46.109Z,3.20
2023-03-27T06:26:15.444Z,3.20
2023-03-27T06:28:43.575Z,3.20
2023-03-27T06:31:11.995Z,3.10
2023-03-27T06:33:40.440Z,3.10
2023-03-27T06:36:10.146Z,3.10
2023-03-27T06:38:39.298Z,3.00
2023-03-27T06:41:07.145Z,3.00
2023-03-27T06:43:35.113Z,3.10
2023-03-27T06:46:03.156Z,3.00
2023-03-27T06:48:31.749Z,2.90
2023-03-27T06:50:59.823Z,2.90
2023-03-27T06:53:28.958Z,2.80
2023-03-27T06:55:59.704Z,2.80
2023-03-27T06:58:28.025Z,2.70
2023-03-27T07:00:56.012Z,2.70
2023-03-27T07:03:25.725Z,2.70
2023-03-27T07:05:53.626Z,2.80
2023-03-27T07:08:25.193Z,2.70
2023-03-27T07:11:08.013Z,2.70
2023-03-27T07:13:40.960Z,2.70
2023-03-27T07:16:10.220Z,2.50
2023-03-27T07:18:38.043Z,2.50
2023-03-27T07:21:07.671Z,2.60
2023-03-27T07:23:35.642Z,2.70
2023-03-27T07:26:03.836Z,2.60
2023-03-27T07:28:32.748Z,2.60
2023-03-27T07:31:01.918Z,2.50
2023-03-27T07:33:29.767Z,2.50
2023-03-27T07:35:57.863Z,2.40
2023-03-27T07:38:26.215Z,2.40
2023-03-27T07:40:54.003Z,2.30
2023-03-27T07:43:21.770Z,2.20
2023-03-27T07:45:50.052Z,2.20
2023-03-27T07:48:19.393Z,2.20
2023-03-27T07:50:47.731Z,2.30
2023-03-27T07:53:33.713Z,2.20
2023-03-27T07:56:02.696Z,2.20
2023-03-27T07:58:30.545Z,2.20
2023-03-27T08:01:02.076Z,2.20
2023-03-27T08:03:32.064Z,2.40
2023-03-27T08:06:00.818Z,2.10
2023-03-27T08:08:28.832Z,2.10
2023-03-27T08:10:56.933Z,2.10
2023-03-27T08:13:24.836Z,1.90
2023-03-27T08:15:52.858Z,1.90
2023-03-27T08:18:20.700Z,1.90
2023-03-27T08:20:53.316Z,1.90
2023-03-27T08:23:21.071Z,1.80
2023-03-27T08:25:51.232Z,1.90
2023-03-27T08:28:19.016Z,1.90
2023-03-27T08:30:47.252Z,1.80
2023-03-27T08:33:15.043Z,1.70
2023-03-27T08:35:42.898Z,1.80
2023-03-27T08:38:23.610Z,2.00
2023-03-27T08:40:58.818Z,1.90
2023-03-27T08:43:27.340Z,2.10
2023-03-27T08:45:56.714Z,2.20
2023-03-27T08:48:27.548Z,2.00
2023-03-27T08:50:56.469Z,2.10
2023-03-27T08:53:32.283Z,2.10
2023-03-27T08:56:00.526Z,1.90
2023-03-27T08:58:28.325Z,1.80
2023-03-27T09:00:59.010Z,1.90
2023-03-27T09:03:29.610Z,2.00
2023-03-27T09:05:58.796Z,2.00
2023-03-27T09:08:35.203Z,2.00
2023-03-27T09:11:05.994Z,2.00
2023-03-27T09:13:36.120Z,2.00
2023-03-27T09:16:04.935Z,2.00
2023-03-27T09:18:34.835Z,2.10
2023-03-27T09:21:04.903Z,2.00
2023-03-27T09:23:37.478Z,1.90
2023-03-27T09:26:07.540Z,1.90
2023-03-27T09:28:37.494Z,2.10
2023-03-27T09:31:17.642Z,2.00
2023-03-27T09:33:46.038Z,1.90
2023-03-27T09:36:13.802Z,1.80
2023-03-27T09:38:44.600Z,1.80
2023-03-27T09:41:13.810Z,1.80
2023-03-27T09:43:42.772Z,1.90
2023-03-27T09:46:10.672Z,1.80
2023-03-27T09:48:41.283Z,1.90
2023-03-27T09:51:35.718Z,2.00
2023-03-27T09:54:05.195Z,1.90
2023-03-27T09:56:35.954Z,2.00
2023-03-27T09:59:10.175Z,1.90
2023-03-27T10:01:38.297Z,2.10
2023-03-27T10:04:13.248Z,2.20
2023-03-27T10:06:44.590Z,2.10
2023-03-27T10:09:22.549Z,2.00
2023-03-27T10:11:50.752Z,1.90
2023-03-27T10:14:19.682Z,2.00
2023-03-27T10:16:48.027Z,1.90
2023-03-27T10:19:24.012Z,2.10
2023-03-27T10:21:51.889Z,1.90
2023-03-27T10:24:22.915Z,1.90
2023-03-27T10:26:51.186Z,1.90
2023-03-27T10:29:22.905Z,1.80
2023-03-27T10:31:52.006Z,1.80
2023-03-27T10:34:32.431Z,2.00
2023-03-27T10:37:01.486Z,1.90
2023-03-27T10:39:33.779Z,2.10
2023-03-27T10:42:04.069Z,2.10
2023-03-27T10:44:31.849Z,2.10
2023-03-27T10:46:59.636Z,1.90
2023-03-27T10:49:31.121Z,2.10
2023-03-27T10:52:03.746Z,2.00
2023-03-27T10:54:37.605Z,2.00
2023-03-27T10:57:07.325Z,2.00
2023-03-27T10:59:41.891Z,2.00
2023-03-27T11:02:15.996Z,2.00
2023-03-27T11:04:46.472Z,2.00
2023-03-27T11:07:18.067Z,2.10
2023-03-27T11:09:56.864Z,2.10
2023-03-27T11:12:24.621Z,2.10
2023-03-27T11:14:54.184Z,2.30
2023-03-27T11:17:24.734Z,2.40
2023-03-27T11:20:00.302Z,2.30
2023-03-27T11:22:29.914Z,2.40
2023-03-27T11:25:02.782Z,2.30
2023-03-27T11:27:32.316Z,2.30
2023-03-27T11:30:26.664Z,2.30
2023-03-27T11:33:00.609Z,2.20
2023-03-27T11:35:30.295Z,2.30
2023-03-27T11:37:59.967Z,2.30
2023-03-27T11:40:30.167Z,2.40
2023-03-27T11:42:57.960Z,2.50
2023-03-27T11:45:26.049Z,2.60
2023-03-27T11:48:13.129Z,2.60
2023-03-27T11:50:45.254Z,2.60
2023-03-27T11:53:29.461Z,2.50
2023-03-27T11:56:08.838Z,2.40
2023-03-27T11:58:38.532Z,2.40
2023-03-27T12:01:08.203Z,2.60
2023-03-27T12:03:53.459Z,2.60
2023-03-27T12:06:23.066Z,2.50
2023-03-27T12:09:05.078Z,2.50
2023-03-27T12:11:37.401Z,2.80
2023-03-27T12:14:34.369Z,2.90
2023-03-27T12:17:21.032Z,2.90
2023-03-27T12:20:06.784Z,2.90
2023-03-27T12:22:39.940Z,2.90
2023-03-27T12:25:20.633Z,3.00
2023-03-27T12:27:54.969Z,3.00
2023-03-27T12:30:31.681Z,3.10
2023-03-27T12:33:06.189Z,3.10
2023-03-27T12:35:37.265Z,3.00
2023-03-27T12:38:06.420Z,3.20
2023-03-27T12:40:38.802Z,3.30
2023-03-27T12:43:29.479Z,3.60
2023-03-27T12:46:15.773Z,3.70
2023-03-27T12:48:56.628Z,3.70
2023-03-27T12:51:41.268Z,3.70
2023-03-27T12:54:30.446Z,3.70
2023-03-27T12:57:05.583Z,3.70
2023-03-27T12:59:36.913Z,3.60
2023-03-27T13:02:24.111Z,3.60
2023-03-27T13:05:01.176Z,3.60
2023-03-27T13:07:31.387Z,3.60
2023-03-27T13:10:14.626Z,3.70
2023-03-27T13:12:51.597Z,3.70
2023-03-27T13:15:57.459Z,3.80
2023-03-27T13:18:31.794Z,3.90
2023-03-27T13:21:05.454Z,4.00
2023-03-27T13:23:44.224Z,3.80
2023-03-27T13:26:20.177Z,3.70
2023-03-27T13:28:49.533Z,3.90
2023-03-27T13:31:51.130Z,4.00
2023-03-27T13:34:29.973Z,4.30
2023-03-27T13:37:07.305Z,4.50
2023-03-27T13:39:40.360Z,4.60
2023-03-27T13:42:12.623Z,4.00
2023-03-27T13:44:50.257Z,3.50
2023-03-27T13:47:44.033Z,2.80
2023-03-27T13:50:24.235Z,2.40
2023-03-27T13:53:17.818Z,2.10
2023-03-27T13:55:56.785Z,1.90
2023-03-27T13:58:51.210Z,1.90
2023-03-27T14:01:30.526Z,2.00
2023-03-27T14:04:40.265Z,1.80
2023-03-27T14:07:36.245Z,1.70
2023-03-27T14:10:22.362Z,1.70
2023-03-27T14:12:58.301Z,2.10
2023-03-27T14:15:54.070Z,2.70
2023-03-27T14:18:40.553Z,3.10
2023-03-27T14:21:09.254Z,3.30
2023-03-27T14:23:42.385Z,3.30
2023-03-27T14:26:14.459Z,3.20
2023-03-27T14:28:49.427Z,3.20
2023-03-27T14:31:19.252Z,3.60
2023-03-27T14:33:51.572Z,3.90
2023-03-27T14:36:20.092Z,4.10
2023-03-27T14:38:49.253Z,4.10
2023-03-27T14:41:21.009Z,4.10
2023-03-27T14:43:49.104Z,4.10
2023-03-27T14:46:17.029Z,4.20
2023-03-27T14:48:46.014Z,4.20
2023-03-27T14:51:15.614Z,4.00
2023-03-27T14:53:45.213Z,3.90
2023-03-27T14:56:24.696Z,4.00
2023-03-27T14:58:52.482Z,3.90
2023-03-27T15:01:20.340Z,3.70
2023-03-27T15:03:48.163Z,3.80
2023-03-27T15:06:17.121Z,4.00
2023-03-27T15:08:46.539Z,4.20
2023-03-27T15:11:16.282Z,4.40
2023-03-27T15:13:47.515Z,4.30
2023-03-27T15:16:18.634Z,4.60
2023-03-27T15:18:53.047Z,4.70
2023-03-27T15:21:34.593Z,5.10
2023-03-27T15:24:05.592Z,5.40
2023-03-27T15:26:35.062Z,5.10
2023-03-27T15:29:07.855Z,4.80
2023-03-27T15:31:35.804Z,4.40
2023-03-27T15:34:06.066Z,4.10
2023-03-27T15:36:34.472Z,4.00
2023-03-27T15:39:02.674Z,4.00
2023-03-27T15:41:38.650Z,4.00
2023-03-27T15:44:10.807Z,4.10
2023-03-27T15:46:46.922Z,3.90
2023-03-27T15:49:22.577Z,4.00
2023-03-27T15:51:50.899Z,4.00
2023-03-27T15:54:29.518Z,3.90
2023-03-27T15:57:09.643Z,4.00
2023-03-27T15:59:51.983Z,4.00
2023-03-27T16:02:21.576Z,3.80
2023-03-27T16:04:53.013Z,3.90
2023-03-27T16:07:21.909Z,3.90
2023-03-27T16:09:51.504Z,3.90
2023-03-27T16:12:19.912Z,4.00
2023-03-27T16:14:54.190Z,4.00
2023-03-27T16:17:25.112Z,4.00
2023-03-27T16:19:54.450Z,3.80
2023-03-27T16:22:25.872Z,3.70
2023-03-27T16:24:53.830Z,3.60
2023-03-27T16:27:23.440Z,3.50
2023-03-27T16:29:53.019Z,3.60
2023-03-27T16:32:22.142Z,4.00
2023-03-27T16:34:51.460Z,4.70
2023-03-27T16:37:19.917Z,4.20
2023-03-27T16:39:47.715Z,4.00
2023-03-27T16:42:17.517Z,4.00
2023-03-27T16:44:45.425Z,3.80
2023-03-27T16:47:14.897Z,3.80
2023-03-27T16:49:42.830Z,3.70
2023-03-27T16:52:10.826Z,3.60
2023-03-27T16:54:38.715Z,3.60
2023-03-27T16:57:06.941Z,3.60
2023-03-27T16:59:34.801Z,3.40
2023-03-27T17:02:02.734Z,3.40
2023-03-27T17:04:32.128Z,3.40
2023-03-27T17:07:00.147Z,3.20
2023-03-27T17:09:28.471Z,3.10
2023-03-27T17:11:56.350Z,3.00
2023-03-27T17:14:24.216Z,2.90
2023-03-27T17:16:52.284Z,3.00
2023-03-27T17:19:20.436Z,3.10
2023-03-27T17:21:49.672Z,3.00
2023-03-27T17:24:19.822Z,3.10
2023-03-27T17:26:47.712Z,2.90
2023-03-27T17:29:15.523Z,2.90
2023-03-27T17:31:43.378Z,2.70
2023-03-27T17:34:11.270Z,2.50
2023-03-27T17:36:47.254Z,2.50
2023-03-27T17:39:21.749Z,2.50
2023-03-27T17:41:50.803Z,2.60
2023-03-27T17:44:18.699Z,2.60
2023-03-27T17:46:46.548Z,2.50
2023-03-27T17:49:14.523Z,2.50
2023-03-27T17:51:42.389Z,2.50
2023-03-27T17:54:10.252Z,2.30
2023-03-27T17:56:40.899Z,2.40
2023-03-27T17:59:10.056Z,2.50
2023-03-27T18:01:37.925Z,2.30
2023-03-27T18:04:05.905Z,2.30
2023-03-27T18:06:33.799Z,2.30
2023-03-27T18:09:01.637Z,2.40
2023-03-27T18:11:29.963Z,2.30
2023-03-27T18:13:59.175Z,2.10
2023-03-27T18:16:27.040Z,2.00
2023-03-27T18:18:55.502Z,2.00
2023-03-27T18:21:23.429Z,2.00
2023-03-27T18:23:53.418Z,2.10
2023-03-27T18:26:21.793Z,1.80
2023-03-27T18:28:49.658Z,1.80
2023-03-27T18:31:18.896Z,1.70
2023-03-27T18:33:46.783Z,1.60
2023-03-27T18:36:15.477Z,1.80
2023-03-27T18:38:43.415Z,1.90
2023-03-27T18:41:11.420Z,1.90
2023-03-27T18:43:39.267Z,1.90
2023-03-27T18:46:07.408Z,1.90
2023-03-27T18:48:36.685Z,1.80
2023-03-27T18:51:08.522Z,1.90
2023-03-27T18:53:38.774Z,1.90
2023-03-27T18:56:07.331Z,1.90
2023-03-27T18:58:35.691Z,1.90
2023-03-27T19:01:04.073Z,2.00
2023-03-27T19:03:35.288Z,1.90
2023-03-27T19:06:06.855Z,1.90
2023-03-27T19:08:40.002Z,2.00
2023-03-27T19:11:07.950Z,1.90
2023-03-27T19:13:35.778Z,1.80
2023-03-27T19:16:14.273Z,1.70
2023-03-27T19:18:43.501Z,1.70
2023-03-27T19:21:12.736Z,1.60
2023-03-27T19:23:40.605Z,1.60
2023-03-27T19:26:09.011Z,1.70
2023-03-27T19:28:37.052Z,1.80
2023-03-27T19:31:06.091Z,1.80
2023-03-27T19:33:33.955Z,1.70
2023-03-27T19:36:03.327Z,1.70
2023-03-27T19:38:37.262Z,1.80
2023-03-27T19:41:10.684Z,1.80
2023-03-27T19:43:38.523Z,1.90
2023-03-27T19:46:15.881Z,1.80
2023-03-27T19:48:44.653Z,1.80
2023-03-27T19:51:15.595Z,1.80
2023-03-27T19:53:44.717Z,1.90
2023-03-27T19:56:12.536Z,1.80
2023-03-27T19:58:42.403Z,1.70
2023-03-27T20:01:10.403Z,1.70
2023-03-27T20:03:39.885Z,1.80
2023-03-27T20:06:13.221Z,1.70
2023-03-27T20:08:42.251Z,1.80
2023-03-27T20:11:13.496Z,1.80
2023-03-27T20:13:53.068Z,1.70
2023-03-27T20:16:24.187Z,1.60
2023-03-27T20:18:55.130Z,1.60
2023-03-27T20:21:24.539Z,1.70
2023-03-27T20:23:56.751Z,1.70
2023-03-27T20:26:26.048Z,1.60
2023-03-27T20:28:54.024Z,1.70
2023-03-27T20:31:22.010Z,1.60
2023-03-27T20:33:52.211Z,1.70
2023-03-27T20:36:22.998Z,1.60
2023-03-27T20:38:52.596Z,1.70
2023-03-27T20:41:21.773Z,1.60
2023-03-27T20:43:51.131Z,1.60
2023-03-27T20:46:19.026Z,1.60
2023-03-27T20:48:54.172Z,1.60
2023-03-27T20:51:24.080Z,1.60
2023-03-27T20:53:55.732Z,1.60
2023-03-27T20:56:24.085Z,1.70
2023-03-27T20:58:53.326Z,1.60
2023-03-27T21:01:27.046Z,1.60
2023-03-27T21:03:58.248Z,1.70
2023-03-27T21:06:26.440Z,1.50
2023-03-27T21:08:54.298Z,1.50
2023-03-27T21:11:22.211Z,1.30
2023-03-27T21:13:50.460Z,1.30
2023-03-27T21:16:19.752Z,1.40
2023-03-27T21:18:47.658Z,1.40
2023-03-27T21:21:15.774Z,1.30
2023-03-27T21:23:43.573Z,1.30
2023-03-27T21:26:11.457Z,1.30
2023-03-27T21:28:39.256Z,1.20
2023-03-27T21:31:07.892Z,1.30
2023-03-27T21:33:37.189Z,1.40
2023-03-27T21:36:05.701Z,1.30
2023-03-27T21:38:33.585Z,1.20
2023-03-27T21:41:02.615Z,1.20
2023-03-27T21:43:30.673Z,1.30
2023-03-27T21:46:00.205Z,1.20
2023-03-27T21:48:28.419Z,1.20
2023-03-27T21:51:00.941Z,1.20
2023-03-27T21:53:28.854Z,1.20
2023-03-27T21:55:57.566Z,1.30
2023-03-27T21:58:25.744Z,1.20
2023-03-27T22:00:53.608Z,1.10
2023-03-27T22:03:21.412Z,1.10
2023-03-27T22:05:57.342Z,1.10
2023-03-27T22:08:30.632Z,1.10
2023-03-27T22:10:59.364Z,1.10
2023-03-27T22:13:27.212Z,1.10
2023-03-27T22:15:55.079Z,1.20
2023-03-27T22:18:23.653Z,1.10
2023-03-27T22:20:51.458Z,1.30
2023-03-27T22:23:19.289Z,1.30
2023-03-27T22:25:53.884Z,1.30
2023-03-27T22:28:21.711Z,1.30
2023-03-27T22:30:49.532Z,1.10
2023-03-27T22:33:17.399Z,1.30
2023-03-27T22:35:48.969Z,1.20
2023-03-27T22:38:17.088Z,1.20
2023-03-27T22:40:45.053Z,1.30
2023-03-27T22:43:22.492Z,1.50
2023-03-27T22:45:52.392Z,1.60
2023-03-27T22:48:20.434Z,1.40
2023-03-27T22:50:54.421Z,1.60
2023-03-27T22:53:22.263Z,1.40
2023-03-27T22:55:50.194Z,1.30
2023-03-27T22:58:19.358Z,1.20
2023-03-27T23:00:47.329Z,1.20
2023-03-27T23:03:15.636Z,1.20
2023-03-27T23:05:44.343Z,1.10
2023-03-27T23:08:12.309Z,1.10
2023-03-27T23:10:40.105Z,1.00
2023-03-27T23:13:08.991Z,1.00
2023-03-27T23:15:38.138Z,1.10
2023-03-27T23:18:06.336Z,1.10
2023-03-27T23:20:34.136Z,1.20
2023-03-27T23:23:01.984Z,1.20
2023-03-27T23:25:29.798Z,1.20
2023-03-27T23:27:57.593Z,1.30
2023-03-27T23:30:25.464Z,1.20
2023-03-27T23:32:54.654Z,1.20
2023-03-27T23:35:22.451Z,1.20
2023-03-27T23:37:50.256Z,1.10
2023-03-27T23:40:18.204Z,1.00
2023-03-27T23:42:45.982Z,0.80
2023-03-27T23:45:13.780Z,0.80
2023-03-27T23:47:41.564Z,0.80
2023-03-27T23:50:11.354Z,0.90
2023-03-27T23:52:39.238Z,0.90
2023-03-27T23:55:07.740Z,0.90
2023-03-27T23:57:35.518Z,0.80
